Strona główna
METAR-TAF:

METAR-TAF

Lotnisko :

Port lotniczy Quimper - Cornouaille

Quimper, Francja

Szerokość geograficzna: 47-58N, Długość geograficzna: 004-10W, wysokość: 92 m

Aktualna obserwacja pogody

Raport powstał 31 minut temu, godzina 08:00 UTC
Wiatr 8 kt od wschodnio-południowy wschód, zmienny między wschód i południowy wschód
Temperatura 22°C
Wilgotność 53%
Ciśnienie 1029 hPa
Widzialność 10 km lub więcej
Brak chmur poniżej 1500 m i brak chmur cumulonimbus

METAR: LFRQ 280800Z AUTO 11008KT 080V140 CAVOK 22/12 Q1029

czas: 10:31 (08:31 UTC)


TAF: brakujący

Obserwacja i prognoza pogody dla ponad 4000 lotnisk (raport METAR i TAF).

Dostępne stacje oznaczono żółtymi i czerwonymi punktami na mapie.

Najedź kursorem aby zobaczyć nazwę stacji.

Kliknij aby zobaczyć obserwacje i prognozy pogody.

Aby zmienić mapę: kliknij na zielony przycisk z czarnym krzyżykiem, aby powiększyć; na zielony przycisk z myślnikiem, aby pomniejszyć; na zielone strzałki, aby przejść do map sąsiednich.


METAR-TAF: